sensor_id;sensor_type;location;lat;lon;timestamp;P1;durP1;ratioP1;P2;durP2;ratioP2
39782;SDS011;25462;51.164;17.100;2023-03-31T00:03:27;8.00;;;2.30;;
39782;SDS011;25462;51.164;17.100;2023-03-31T00:08:31;7.00;;;2.10;;
39782;SDS011;25462;51.164;17.100;2023-03-31T00:13:38;7.00;;;2.40;;
39782;SDS011;25462;51.164;17.100;2023-03-31T00:18:42;5.20;;;1.90;;
39782;SDS011;25462;51.164;17.100;2023-03-31T00:23:58;5.00;;;2.10;;
39782;SDS011;25462;51.164;17.100;2023-03-31T00:29:06;7.40;;;2.40;;
39782;SDS011;25462;51.164;17.100;2023-03-31T00:34:11;4.00;;;2.00;;
39782;SDS011;25462;51.164;17.100;2023-03-31T00:39:16;4.60;;;2.10;;
39782;SDS011;25462;51.164;17.100;2023-03-31T00:44:22;4.90;;;2.20;;
39782;SDS011;25462;51.164;17.100;2023-03-31T00:49:33;7.40;;;2.50;;
39782;SDS011;25462;51.164;17.100;2023-03-31T00:54:41;7.40;;;3.10;;
39782;SDS011;25462;51.164;17.100;2023-03-31T00:59:50;5.80;;;2.30;;
39782;SDS011;25462;51.164;17.100;2023-03-31T01:04:57;5.70;;;2.90;;
39782;SDS011;25462;51.164;17.100;2023-03-31T01:10:05;7.70;;;3.30;;
39782;SDS011;25462;51.164;17.100;2023-03-31T01:15:11;7.50;;;3.40;;
39782;SDS011;25462;51.164;17.100;2023-03-31T01:26:17;8.40;;;4.40;;
39782;SDS011;25462;51.164;17.100;2023-03-31T01:43:31;8.80;;;3.40;;
39782;SDS011;25462;51.164;17.100;2023-03-31T02:00:13;8.70;;;3.00;;
39782;SDS011;25462;51.164;17.100;2023-03-31T02:05:17;7.40;;;2.70;;
39782;SDS011;25462;51.164;17.100;2023-03-31T02:10:35;8.30;;;3.30;;
39782;SDS011;25462;51.164;17.100;2023-03-31T02:15:53;5.70;;;3.10;;
39782;SDS011;25462;51.164;17.100;2023-03-31T02:21:00;18.80;;;4.90;;
39782;SDS011;25462;51.164;17.100;2023-03-31T02:26:06;8.50;;;3.10;;
39782;SDS011;25462;51.164;17.100;2023-03-31T02:36:46;9.70;;;4.70;;
39782;SDS011;25462;51.164;17.100;2023-03-31T02:41:51;6.50;;;4.20;;
39782;SDS011;25462;51.164;17.100;2023-03-31T02:46:55;10.30;;;4.80;;
39782;SDS011;25462;51.164;17.100;2023-03-31T03:03:27;11.80;;;5.30;;
39782;SDS011;25462;51.164;17.100;2023-03-31T03:19:41;10.90;;;5.30;;
39782;SDS011;25462;51.164;17.100;2023-03-31T03:24:45;9.70;;;5.90;;
39782;SDS011;25462;51.164;17.100;2023-03-31T03:29:50;12.30;;;6.50;;
39782;SDS011;25462;51.164;17.100;2023-03-31T03:34:54;11.10;;;6.50;;
39782;SDS011;25462;51.164;17.100;2023-03-31T03:39:58;12.00;;;6.90;;
39782;SDS011;25462;51.164;17.100;2023-03-31T03:45:02;14.70;;;6.60;;
39782;SDS011;25462;51.164;17.100;2023-03-31T03:50:07;13.70;;;7.20;;
39782;SDS011;25462;51.164;17.100;2023-03-31T03:55:12;13.10;;;7.40;;
39782;SDS011;25462;51.164;17.100;2023-03-31T04:00:16;11.90;;;7.00;;
39782;SDS011;25462;51.164;17.100;2023-03-31T04:05:21;11.40;;;6.90;;
39782;SDS011;25462;51.164;17.100;2023-03-31T04:10:25;10.90;;;6.90;;
39782;SDS011;25462;51.164;17.100;2023-03-31T04:15:29;13.40;;;8.00;;
39782;SDS011;25462;51.164;17.100;2023-03-31T04:20:33;13.60;;;7.40;;
39782;SDS011;25462;51.164;17.100;2023-03-31T04:25:40;9.90;;;6.80;;
39782;SDS011;25462;51.164;17.100;2023-03-31T04:30:48;13.90;;;7.90;;
39782;SDS011;25462;51.164;17.100;2023-03-31T04:35:53;12.00;;;7.50;;
39782;SDS011;25462;51.164;17.100;2023-03-31T04:40:57;13.20;;;7.60;;
39782;SDS011;25462;51.164;17.100;2023-03-31T04:46:00;13.30;;;9.00;;
39782;SDS011;25462;51.164;17.100;2023-03-31T04:51:05;15.60;;;7.70;;
39782;SDS011;25462;51.164;17.100;2023-03-31T04:56:09;13.50;;;8.40;;
39782;SDS011;25462;51.164;17.100;2023-03-31T05:01:13;21.90;;;15.10;;
39782;SDS011;25462;51.164;17.100;2023-03-31T05:06:20;21.10;;;13.40;;
39782;SDS011;25462;51.164;17.100;2023-03-31T05:11:24;18.70;;;12.60;;
39782;SDS011;25462;51.164;17.100;2023-03-31T05:16:28;15.50;;;10.20;;
39782;SDS011;25462;51.164;17.100;2023-03-31T05:21:33;15.00;;;8.60;;
39782;SDS011;25462;51.164;17.100;2023-03-31T05:26:38;14.30;;;9.60;;
39782;SDS011;25462;51.164;17.100;2023-03-31T05:31:43;15.50;;;9.80;;
39782;SDS011;25462;51.164;17.100;2023-03-31T05:36:48;15.50;;;9.50;;
39782;SDS011;25462;51.164;17.100;2023-03-31T05:41:53;15.90;;;10.60;;
39782;SDS011;25462;51.164;17.100;2023-03-31T05:46:57;16.80;;;10.60;;
39782;SDS011;25462;51.164;17.100;2023-03-31T05:52:01;16.70;;;11.50;;
39782;SDS011;25462;51.164;17.100;2023-03-31T05:57:05;18.40;;;11.40;;
39782;SDS011;25462;51.164;17.100;2023-03-31T06:02:12;13.70;;;9.50;;
39782;SDS011;25462;51.164;17.100;2023-03-31T06:07:17;13.70;;;9.50;;
39782;SDS011;25462;51.164;17.100;2023-03-31T06:12:21;10.50;;;8.10;;
39782;SDS011;25462;51.164;17.100;2023-03-31T06:17:27;41.60;;;26.10;;
39782;SDS011;25462;51.164;17.100;2023-03-31T06:22:31;45.70;;;27.10;;
39782;SDS011;25462;51.164;17.100;2023-03-31T06:27:35;20.70;;;13.60;;
39782;SDS011;25462;51.164;17.100;2023-03-31T06:32:39;10.90;;;5.80;;
39782;SDS011;25462;51.164;17.100;2023-03-31T06:37:45;9.70;;;5.90;;
39782;SDS011;25462;51.164;17.100;2023-03-31T06:42:50;9.70;;;4.90;;
39782;SDS011;25462;51.164;17.100;2023-03-31T06:47:54;12.40;;;6.00;;
39782;SDS011;25462;51.164;17.100;2023-03-31T06:52:59;9.50;;;5.20;;
39782;SDS011;25462;51.164;17.100;2023-03-31T06:58:04;8.10;;;5.30;;
39782;SDS011;25462;51.164;17.100;2023-03-31T07:03:08;16.40;;;5.40;;
39782;SDS011;25462;51.164;17.100;2023-03-31T07:08:12;9.60;;;5.00;;
39782;SDS011;25462;51.164;17.100;2023-03-31T07:13:16;13.10;;;5.50;;
39782;SDS011;25462;51.164;17.100;2023-03-31T07:18:20;11.40;;;6.80;;
39782;SDS011;25462;51.164;17.100;2023-03-31T07:23:28;7.80;;;4.90;;
39782;SDS011;25462;51.164;17.100;2023-03-31T07:28:32;8.60;;;5.10;;
39782;SDS011;25462;51.164;17.100;2023-03-31T07:33:36;10.80;;;5.10;;
39782;SDS011;25462;51.164;17.100;2023-03-31T07:38:41;10.00;;;5.90;;
39782;SDS011;25462;51.164;17.100;2023-03-31T07:43:45;9.60;;;5.20;;
39782;SDS011;25462;51.164;17.100;2023-03-31T07:48:50;12.90;;;5.40;;
39782;SDS011;25462;51.164;17.100;2023-03-31T07:53:55;8.30;;;5.00;;
39782;SDS011;25462;51.164;17.100;2023-03-31T07:58:59;7.40;;;4.70;;
39782;SDS011;25462;51.164;17.100;2023-03-31T08:04:03;7.50;;;4.90;;
39782;SDS011;25462;51.164;17.100;2023-03-31T08:09:07;9.20;;;5.40;;
39782;SDS011;25462;51.164;17.100;2023-03-31T08:14:11;8.70;;;5.40;;
39782;SDS011;25462;51.164;17.100;2023-03-31T08:19:14;8.80;;;5.00;;
39782;SDS011;25462;51.164;17.100;2023-03-31T08:24:18;7.70;;;5.70;;
39782;SDS011;25462;51.164;17.100;2023-03-31T08:29:22;11.40;;;6.00;;
39782;SDS011;25462;51.164;17.100;2023-03-31T08:34:26;9.30;;;6.30;;
39782;SDS011;25462;51.164;17.100;2023-03-31T08:39:30;10.60;;;5.60;;
39782;SDS011;25462;51.164;17.100;2023-03-31T08:44:35;9.40;;;5.90;;
39782;SDS011;25462;51.164;17.100;2023-03-31T08:49:53;9.50;;;4.90;;
39782;SDS011;25462;51.164;17.100;2023-03-31T08:55:02;8.50;;;5.00;;
39782;SDS011;25462;51.164;17.100;2023-03-31T09:00:14;7.00;;;4.70;;
39782;SDS011;25462;51.164;17.100;2023-03-31T09:16:32;7.10;;;4.60;;
39782;SDS011;25462;51.164;17.100;2023-03-31T09:21:42;8.10;;;4.50;;
39782;SDS011;25462;51.164;17.100;2023-03-31T09:26:51;7.10;;;4.10;;
39782;SDS011;25462;51.164;17.100;2023-03-31T09:32:01;8.60;;;4.40;;
39782;SDS011;25462;51.164;17.100;2023-03-31T09:37:24;11.80;;;5.70;;
39782;SDS011;25462;51.164;17.100;2023-03-31T09:42:30;6.00;;;3.40;;
39782;SDS011;25462;51.164;17.100;2023-03-31T09:47:35;9.00;;;3.60;;
39782;SDS011;25462;51.164;17.100;2023-03-31T09:52:43;4.70;;;2.90;;
39782;SDS011;25462;51.164;17.100;2023-03-31T09:57:51;9.30;;;3.00;;
39782;SDS011;25462;51.164;17.100;2023-03-31T10:02:56;10.10;;;3.30;;
39782;SDS011;25462;51.164;17.100;2023-03-31T10:13:14;9.40;;;2.90;;
39782;SDS011;25462;51.164;17.100;2023-03-31T10:18:20;10.10;;;3.60;;
39782;SDS011;25462;51.164;17.100;2023-03-31T10:23:27;5.50;;;3.00;;
39782;SDS011;25462;51.164;17.100;2023-03-31T10:28:33;7.20;;;3.40;;
39782;SDS011;25462;51.164;17.100;2023-03-31T10:33:39;9.00;;;2.90;;
39782;SDS011;25462;51.164;17.100;2023-03-31T10:38:49;7.20;;;3.40;;
39782;SDS011;25462;51.164;17.100;2023-03-31T10:43:54;9.10;;;3.30;;
39782;SDS011;25462;51.164;17.100;2023-03-31T10:49:02;7.80;;;3.20;;
39782;SDS011;25462;51.164;17.100;2023-03-31T10:54:17;8.50;;;2.60;;
39782;SDS011;25462;51.164;17.100;2023-03-31T10:59:38;4.70;;;2.20;;
39782;SDS011;25462;51.164;17.100;2023-03-31T11:05:06;8.20;;;2.40;;
39782;SDS011;25462;51.164;17.100;2023-03-31T11:10:20;6.40;;;2.60;;
39782;SDS011;25462;51.164;17.100;2023-03-31T11:26:59;5.90;;;2.60;;
39782;SDS011;25462;51.164;17.100;2023-03-31T11:43:21;7.90;;;2.20;;
39782;SDS011;25462;51.164;17.100;2023-03-31T11:54:00;6.20;;;2.50;;
39782;SDS011;25462;51.164;17.100;2023-03-31T11:59:08;4.20;;;1.70;;
39782;SDS011;25462;51.164;17.100;2023-03-31T12:09:56;8.00;;;3.50;;
39782;SDS011;25462;51.164;17.100;2023-03-31T12:21:03;5.90;;;2.10;;
39782;SDS011;25462;51.164;17.100;2023-03-31T12:30:54;9.40;;;2.20;;
39782;SDS011;25462;51.164;17.100;2023-03-31T12:41:33;4.90;;;1.60;;
39782;SDS011;25462;51.164;17.100;2023-03-31T12:57:43;7.60;;;1.90;;
39782;SDS011;25462;51.164;17.100;2023-03-31T13:02:47;6.70;;;2.30;;
39782;SDS011;25462;51.164;17.100;2023-03-31T13:07:52;8.20;;;2.10;;
39782;SDS011;25462;51.164;17.100;2023-03-31T13:12:59;5.90;;;2.00;;
39782;SDS011;25462;51.164;17.100;2023-03-31T13:18:05;5.90;;;2.10;;
39782;SDS011;25462;51.164;17.100;2023-03-31T13:23:20;6.40;;;2.00;;
39782;SDS011;25462;51.164;17.100;2023-03-31T13:28:48;6.60;;;1.90;;
39782;SDS011;25462;51.164;17.100;2023-03-31T13:33:58;6.20;;;2.60;;
39782;SDS011;25462;51.164;17.100;2023-03-31T13:49:42;8.00;;;3.30;;
39782;SDS011;25462;51.164;17.100;2023-03-31T14:16:20;8.60;;;3.20;;
39782;SDS011;25462;51.164;17.100;2023-03-31T14:21:29;6.80;;;3.10;;
39782;SDS011;25462;51.164;17.100;2023-03-31T14:26:43;8.70;;;3.20;;
39782;SDS011;25462;51.164;17.100;2023-03-31T14:37:09;7.60;;;4.10;;
39782;SDS011;25462;51.164;17.100;2023-03-31T14:42:17;10.60;;;4.90;;
39782;SDS011;25462;51.164;17.100;2023-03-31T14:47:23;9.10;;;2.90;;
39782;SDS011;25462;51.164;17.100;2023-03-31T14:52:31;9.70;;;3.70;;
39782;SDS011;25462;51.164;17.100;2023-03-31T14:57:36;13.40;;;5.50;;
39782;SDS011;25462;51.164;17.100;2023-03-31T15:02:43;13.80;;;4.90;;
39782;SDS011;25462;51.164;17.100;2023-03-31T15:07:47;12.20;;;5.30;;
39782;SDS011;25462;51.164;17.100;2023-03-31T15:12:52;9.90;;;4.90;;
39782;SDS011;25462;51.164;17.100;2023-03-31T15:17:56;9.90;;;5.00;;
39782;SDS011;25462;51.164;17.100;2023-03-31T15:22:59;9.80;;;4.50;;
39782;SDS011;25462;51.164;17.100;2023-03-31T15:28:10;11.00;;;4.30;;
39782;SDS011;25462;51.164;17.100;2023-03-31T15:33:19;9.60;;;5.10;;
39782;SDS011;25462;51.164;17.100;2023-03-31T15:38:26;12.30;;;5.10;;
39782;SDS011;25462;51.164;17.100;2023-03-31T15:43:31;8.90;;;4.50;;
39782;SDS011;25462;51.164;17.100;2023-03-31T15:48:54;7.20;;;3.70;;
39782;SDS011;25462;51.164;17.100;2023-03-31T15:53:58;9.40;;;4.40;;
39782;SDS011;25462;51.164;17.100;2023-03-31T15:59:05;7.70;;;3.80;;
39782;SDS011;25462;51.164;17.100;2023-03-31T16:04:10;5.90;;;3.40;;
39782;SDS011;25462;51.164;17.100;2023-03-31T16:09:16;5.70;;;2.50;;
39782;SDS011;25462;51.164;17.100;2023-03-31T16:19:53;8.60;;;3.10;;
39782;SDS011;25462;51.164;17.100;2023-03-31T16:25:01;6.10;;;2.90;;
39782;SDS011;25462;51.164;17.100;2023-03-31T16:30:13;5.00;;;2.60;;
39782;SDS011;25462;51.164;17.100;2023-03-31T16:35:19;5.30;;;2.90;;
39782;SDS011;25462;51.164;17.100;2023-03-31T16:40:23;3.90;;;2.30;;
39782;SDS011;25462;51.164;17.100;2023-03-31T16:45:27;5.30;;;2.30;;
39782;SDS011;25462;51.164;17.100;2023-03-31T16:50:31;4.80;;;2.40;;
39782;SDS011;25462;51.164;17.100;2023-03-31T16:55:35;6.50;;;2.70;;
39782;SDS011;25462;51.164;17.100;2023-03-31T17:00:40;3.40;;;2.50;;
39782;SDS011;25462;51.164;17.100;2023-03-31T17:05:46;4.90;;;2.30;;
39782;SDS011;25462;51.164;17.100;2023-03-31T17:10:52;6.20;;;2.90;;
39782;SDS011;25462;51.164;17.100;2023-03-31T17:15:58;4.60;;;2.70;;
39782;SDS011;25462;51.164;17.100;2023-03-31T17:21:21;4.50;;;2.70;;
39782;SDS011;25462;51.164;17.100;2023-03-31T17:26:27;6.00;;;3.00;;
39782;SDS011;25462;51.164;17.100;2023-03-31T17:31:31;6.70;;;3.90;;
39782;SDS011;25462;51.164;17.100;2023-03-31T17:36:36;5.70;;;3.30;;
39782;SDS011;25462;51.164;17.100;2023-03-31T17:41:41;6.10;;;3.60;;
39782;SDS011;25462;51.164;17.100;2023-03-31T17:46:48;7.20;;;3.50;;
39782;SDS011;25462;51.164;17.100;2023-03-31T17:51:54;8.40;;;3.40;;
39782;SDS011;25462;51.164;17.100;2023-03-31T17:57:00;7.50;;;4.30;;
39782;SDS011;25462;51.164;17.100;2023-03-31T18:02:05;11.30;;;4.60;;
39782;SDS011;25462;51.164;17.100;2023-03-31T18:07:10;9.10;;;5.30;;
39782;SDS011;25462;51.164;17.100;2023-03-31T18:12:16;13.00;;;6.30;;
39782;SDS011;25462;51.164;17.100;2023-03-31T18:17:23;11.10;;;5.80;;
39782;SDS011;25462;51.164;17.100;2023-03-31T18:22:29;14.20;;;7.30;;
39782;SDS011;25462;51.164;17.100;2023-03-31T18:27:36;12.30;;;8.70;;
39782;SDS011;25462;51.164;17.100;2023-03-31T18:32:41;12.20;;;7.00;;
39782;SDS011;25462;51.164;17.100;2023-03-31T18:37:47;9.80;;;6.20;;
39782;SDS011;25462;51.164;17.100;2023-03-31T18:42:52;14.00;;;5.00;;
39782;SDS011;25462;51.164;17.100;2023-03-31T18:47:58;7.70;;;4.10;;
39782;SDS011;25462;51.164;17.100;2023-03-31T18:53:04;6.90;;;3.80;;
39782;SDS011;25462;51.164;17.100;2023-03-31T18:58:10;8.20;;;3.90;;
39782;SDS011;25462;51.164;17.100;2023-03-31T19:03:17;6.80;;;3.40;;
39782;SDS011;25462;51.164;17.100;2023-03-31T19:08:24;6.70;;;4.10;;
39782;SDS011;25462;51.164;17.100;2023-03-31T19:13:32;8.00;;;4.40;;
39782;SDS011;25462;51.164;17.100;2023-03-31T19:18:39;7.90;;;4.70;;
39782;SDS011;25462;51.164;17.100;2023-03-31T19:23:45;8.30;;;3.90;;
39782;SDS011;25462;51.164;17.100;2023-03-31T19:28:52;7.80;;;4.20;;
39782;SDS011;25462;51.164;17.100;2023-03-31T19:34:06;8.50;;;4.20;;
39782;SDS011;25462;51.164;17.100;2023-03-31T19:39:15;8.20;;;3.70;;
39782;SDS011;25462;51.164;17.100;2023-03-31T19:44:23;6.80;;;4.10;;
39782;SDS011;25462;51.164;17.100;2023-03-31T19:49:30;10.60;;;4.30;;
39782;SDS011;25462;51.164;17.100;2023-03-31T19:54:36;11.20;;;5.20;;
39782;SDS011;25462;51.164;17.100;2023-03-31T19:59:43;9.10;;;5.40;;
39782;SDS011;25462;51.164;17.100;2023-03-31T20:04:50;11.70;;;5.40;;
39782;SDS011;25462;51.164;17.100;2023-03-31T20:09:59;12.10;;;5.70;;
39782;SDS011;25462;51.164;17.100;2023-03-31T20:15:05;11.10;;;5.30;;
39782;SDS011;25462;51.164;17.100;2023-03-31T20:20:11;10.00;;;5.60;;
39782;SDS011;25462;51.164;17.100;2023-03-31T20:25:16;10.40;;;5.60;;
39782;SDS011;25462;51.164;17.100;2023-03-31T20:30:21;10.50;;;6.00;;
39782;SDS011;25462;51.164;17.100;2023-03-31T20:35:27;10.40;;;6.70;;
39782;SDS011;25462;51.164;17.100;2023-03-31T20:40:34;11.10;;;5.90;;
39782;SDS011;25462;51.164;17.100;2023-03-31T20:45:40;10.90;;;5.20;;
39782;SDS011;25462;51.164;17.100;2023-03-31T20:50:45;11.20;;;5.20;;
39782;SDS011;25462;51.164;17.100;2023-03-31T20:55:50;10.60;;;5.90;;
39782;SDS011;25462;51.164;17.100;2023-03-31T21:00:55;7.60;;;4.60;;
39782;SDS011;25462;51.164;17.100;2023-03-31T21:06:06;8.20;;;3.70;;
39782;SDS011;25462;51.164;17.100;2023-03-31T21:11:13;9.00;;;3.40;;
39782;SDS011;25462;51.164;17.100;2023-03-31T21:16:19;6.10;;;2.70;;
39782;SDS011;25462;51.164;17.100;2023-03-31T21:21:23;5.00;;;2.40;;
39782;SDS011;25462;51.164;17.100;2023-03-31T21:26:29;3.90;;;1.80;;
39782;SDS011;25462;51.164;17.100;2023-03-31T21:31:34;3.30;;;1.40;;
39782;SDS011;25462;51.164;17.100;2023-03-31T21:36:38;6.20;;;1.60;;
39782;SDS011;25462;51.164;17.100;2023-03-31T21:41:42;5.50;;;1.40;;
39782;SDS011;25462;51.164;17.100;2023-03-31T21:46:46;3.30;;;1.30;;
39782;SDS011;25462;51.164;17.100;2023-03-31T21:51:50;2.70;;;1.20;;
39782;SDS011;25462;51.164;17.100;2023-03-31T21:56:54;3.30;;;1.60;;
39782;SDS011;25462;51.164;17.100;2023-03-31T22:01:58;3.30;;;1.30;;
39782;SDS011;25462;51.164;17.100;2023-03-31T22:07:02;2.80;;;1.30;;
39782;SDS011;25462;51.164;17.100;2023-03-31T22:12:07;3.10;;;1.10;;
39782;SDS011;25462;51.164;17.100;2023-03-31T22:17:11;2.20;;;1.00;;
39782;SDS011;25462;51.164;17.100;2023-03-31T22:22:15;4.10;;;1.40;;
39782;SDS011;25462;51.164;17.100;2023-03-31T22:27:19;4.40;;;2.20;;
39782;SDS011;25462;51.164;17.100;2023-03-31T22:32:23;4.90;;;1.80;;
39782;SDS011;25462;51.164;17.100;2023-03-31T22:37:27;3.90;;;1.70;;
39782;SDS011;25462;51.164;17.100;2023-03-31T22:42:31;6.10;;;2.20;;
39782;SDS011;25462;51.164;17.100;2023-03-31T22:47:35;3.80;;;1.50;;
39782;SDS011;25462;51.164;17.100;2023-03-31T22:52:38;4.00;;;1.90;;
39782;SDS011;25462;51.164;17.100;2023-03-31T22:57:42;3.90;;;1.70;;
39782;SDS011;25462;51.164;17.100;2023-03-31T23:02:47;3.40;;;1.40;;
39782;SDS011;25462;51.164;17.100;2023-03-31T23:07:51;3.20;;;1.60;;
39782;SDS011;25462;51.164;17.100;2023-03-31T23:12:55;5.60;;;2.80;;
39782;SDS011;25462;51.164;17.100;2023-03-31T23:18:00;3.60;;;1.60;;
39782;SDS011;25462;51.164;17.100;2023-03-31T23:23:03;3.40;;;1.70;;
39782;SDS011;25462;51.164;17.100;2023-03-31T23:28:07;5.20;;;2.20;;
39782;SDS011;25462;51.164;17.100;2023-03-31T23:33:11;4.30;;;2.20;;
39782;SDS011;25462;51.164;17.100;2023-03-31T23:38:15;4.40;;;2.30;;
39782;SDS011;25462;51.164;17.100;2023-03-31T23:43:19;5.10;;;2.50;;
39782;SDS011;25462;51.164;17.100;2023-03-31T23:48:23;5.70;;;2.30;;
39782;SDS011;25462;51.164;17.100;2023-03-31T23:53:27;6.70;;;2.20;;
39782;SDS011;25462;51.164;17.100;2023-03-31T23:58:31;6.00;;;2.30;;
